Terminal Aerodrome Forecast
Issued by NWS Omaha/Valley, NE

Home | Current Version | Previous Version | Graphics & Text | Print | Product List | Glossary On
Versions: 1 2 3 4 5 6 7 8 9 10 11 12 13 14 15 16 17 18 19 20 21 22 23 24 25 26 27 28 29 30 31 32 33 34 35 36 37 38 39
000
FTUS43 KOAX 250455 AAA
TAFOFK
TAF AMD
KOFK 250455Z 2505/2524 16005KT P6SM BKN090
     FM251000 17009KT P6SM OVC050
      TEMPO 2513/2515 5SM -FZRA OVC020
     FM251500 02013KT 4SM -RASN OVC025
      TEMPO 2515/2517 1SM -SN OVC015
     FM251700 36018G26KT 3SM -SN BR OVC009
     FM252100 36020G30KT 6SM -SN OVC015=

USA.gov is the U.S. government's official web portal to all federal, state and local government web resources and services.